Monday, December 18, 2017, 12:18 AM EST
Back to Local

KGKJ, Port Meadville Airport

Location: Meadville, PA, United States Lat: 41.633
Local Time: 12:18 AM EST ( 5:18 GMT) Lon: -80.217
Time Zone: US/Eastern Elev: 1400 ft

Show me the last for .
Show Decoded

2017-12-17 23:53 METAR KGKJ 180453Z AUTO 20008KT 3SM BR SCT008 OVC012 01/01 A3006 RMK AO2 SLP193
                 T00110006 400171078 =
2017-12-17 23:10 METAR KGKJ 180410Z AUTO 20007KT 9SM BKN014 OVC024 01/01 A3007 RMK AO2 T00110006
                 =
2017-12-17 22:53 METAR KGKJ 180353Z AUTO 19007KT 9SM SCT016 OVC024 01/01 A3006 RMK AO2 SLP195
                 T00110006 =
2017-12-17 21:53 METAR KGKJ 180253Z AUTO 20006KT 10SM OVC023 01/00 A3007 RMK AO2 SLP197 T00110000
                 56001 =
2017-12-17 21:29 METAR KGKJ 180229Z AUTO 18006KT 10SM BKN026 OVC030 01/M01 A3007 RMK AO2
                 T00111006 =
2017-12-17 20:53 METAR KGKJ 180153Z AUTO 19008KT 10SM SCT026 BKN070 OVC110 01/M01 A3007 RMK AO2
                 SLP200 T00111011 =
2017-12-17 19:53 METAR KGKJ 180053Z AUTO 18008KT 10SM OVC095 02/M01 A3006 RMK AO2 SLP196
                 T00171011 =
2017-12-17 18:53 METAR KGKJ 172353Z AUTO 16004KT 10SM OVC100 01/M02 A3007 RMK AO2 SLP199
                 T00111017 10011 21022 58007 =
2017-12-17 17:53 METAR KGKJ 172253Z AUTO 00000KT 10SM FEW090 OVC110 00/M02 A3008 RMK AO2 SLP202
                 T00001022 =
2017-12-17 16:53 METAR KGKJ 172153Z AUTO 00000KT 10SM OVC095 00/M02 A3009 RMK AO2 SLP206
                 T00001022 =
2017-12-17 15:53 METAR KGKJ 172053Z AUTO VRB03KT 9SM OVC110 00/M02 A3009 RMK AO2 SLP207 T00001022
                 55011 =
2017-12-17 14:53 METAR KGKJ 171953Z AUTO 00000KT 9SM SCT120 M01/M02 A3008 RMK AO2 SLP205
                 T10111022 =
2017-12-17 13:53 METAR KGKJ 171853Z AUTO 10004KT 8SM CLR M01/M02 A3010 RMK AO2 SLP209 T10111022 =
2017-12-17 12:53 METAR KGKJ 171753Z AUTO 10003KT 6SM BR CLR M02/M03 A3013 RMK AO2 SLP218 I6001
                 T10221028 11017 21078 58021 =
2017-12-17 11:53 METAR KGKJ 171653Z AUTO 00000KT 5SM BR CLR M02/M03 A3015 RMK AO2 SLP228
                 T10221028 =
2017-12-17 10:53 METAR KGKJ 171553Z AUTO 10003KT 4SM BR CLR M03/M04 A3019 RMK AO2 SLP241
                 T10331039 =
2017-12-17 09:53 METAR KGKJ 171453Z AUTO 09003KT 5SM BR CLR M05/M06 A3019 RMK AO2 SLP242 I1001
                 I3001 T10501056 53006 =
2017-12-17 08:53 METAR KGKJ 171353Z AUTO 05003KT 4SM BR CLR M07/M07 A3017 RMK AO2 SLP236
                 T10671072 =
2017-12-17 08:36 METAR KGKJ 171336Z AUTO 04005KT 3SM BR CLR M07/M08 A3016 RMK AO2 T10721078 =
2017-12-17 08:24 METAR KGKJ 171324Z AUTO 06005KT 1 1/4SM BR CLR M06/M07 A3016 RMK AO2 T10611067 =
2017-12-17 07:53 METAR KGKJ 171253Z AUTO 04003KT 2 1/2SM BR CLR M07/M07 A3017 RMK AO2 SLP237
                 T10671072 =
2017-12-17 07:32 METAR KGKJ 171232Z AUTO 04003KT 1 3/4SM BR CLR M07/M07 A3018 RMK AO2 T10671072 =
2017-12-17 06:53 METAR KGKJ 171153Z AUTO 03003KT 4SM BR CLR M07/M07 A3017 RMK AO2 SLP236 70002
                 I6000 T10671072 11028 21072 51015 =
2017-12-17 06:13 METAR KGKJ 171113Z AUTO 02004KT 3SM BR SCT003 M07/M07 A3017 RMK AO2 T10671072 =
2017-12-17 06:07 METAR KGKJ 171107Z AUTO 02003KT 1 1/2SM BR SCT003 M07/M07 A3016 RMK AO2
                 T10671072 =
2017-12-17 05:53 METAR KGKJ 171053Z AUTO 00000KT 1 1/2SM BR OVC002 M07/M07 A3016 RMK AO2 SLP231
                 I1000 T10671072 =
2017-12-17 05:40 METAR KGKJ 171040Z AUTO 00000KT 3/4SM BR VV002 M07/M07 A3015 RMK AO2 I1000
                 T10671072 =
2017-12-17 05:35 METAR KGKJ 171035Z AUTO 02003KT 1SM BR VV003 M07/M07 A3015 RMK AO2 I1000
                 T10671072 =
2017-12-17 05:26 METAR KGKJ 171026Z AUTO 04003KT 2 1/2SM BR BKN002 M07/M07 A3015 RMK AO2
                 T10671072 =
2017-12-17 05:16 METAR KGKJ 171016Z AUTO 03003KT 4SM BR FEW004 M07/M08 A3015 RMK AO2 T10721083 =
2017-12-17 04:53 METAR KGKJ 170953Z AUTO 00000KT 4SM BR CLR M06/M07 A3014 RMK AO2 SLP225
                 T10611067 =
2017-12-17 04:31 METAR KGKJ 170931Z AUTO 00000KT 3SM BR SCT003 M05/M06 A3014 RMK AO2 T10501061 =
2017-12-17 04:27 METAR KGKJ 170927Z AUTO 00000KT 1 1/4SM BR SCT003 M06/M06 A3013 RMK AO2
                 T10561061 =
2017-12-17 04:20 METAR KGKJ 170920Z AUTO 00000KT 1/2SM FZFG VV003 M06/M06 A3013 RMK AO2 T10561061
                 =
2017-12-17 04:08 METAR KGKJ 170908Z AUTO 04003KT 3/4SM BR VV002 M07/M07 A3013 RMK AO2 T10671072 =
2017-12-17 03:53 METAR KGKJ 170853Z AUTO 05004KT 1/4SM FZFG VV003 M06/M07 A3013 RMK AO2 SLP219
                 I3000 T10561067 58005 =
2017-12-17 03:49 METAR KGKJ 170849Z AUTO 06003KT 1/4SM FZFG VV003 M06/M06 A3013 RMK AO2 =
2017-12-17 02:53 METAR KGKJ 170753Z AUTO 02003KT 1/4SM FZFG VV001 M06/M06 A3014 RMK AO2 SLP225
                 T10611061 =
2017-12-17 01:53 METAR KGKJ 170653Z AUTO 00000KT 1/4SM FZFG VV002 M05/M05 A3014 RMK AO2 SLP225
                 I1000 T10501050 =
2017-12-17 01:41 METAR KGKJ 170641Z AUTO 00000KT 1/4SM FZFG VV002 M04/M05 A3014 RMK AO2 I1000
                 T10441050 =
2017-12-17 01:26 METAR KGKJ 170626Z AUTO 00000KT 1/4SM FZFG VV003 M04/M05 A3013 RMK AO2 T10441050
                 =
2017-12-17 01:18 METAR KGKJ 170618Z AUTO 00000KT 1/2SM FZFG VV003 M04/M04 A3013 RMK AO2 T10441044
                 =
2017-12-17 01:07 METAR KGKJ 170607Z AUTO 00000KT 1/4SM FZFG VV003 M05/M06 A3014 RMK AO2 T10501056
                 =
2017-12-17 00:53 METAR KGKJ 170553Z AUTO 00000KT 1/2SM FZFG VV003 M03/M03 A3013 RMK AO2 SLP218
                 I6001 T10281028 11006 21056 51005 =
2017-12-17 00:45 METAR KGKJ 170545Z AUTO 11003KT 1/4SM FZFG VV003 M03/M03 A3013 RMK AO2 T10331033
                 =
2017-12-17 00:39 METAR KGKJ 170539Z AUTO 10003KT 1/2SM FZFG VV002 M03/M03 A3012 RMK AO2 T10331033
                 =

Support USWX by starting your Amazon purchase here.